Time;durP1;ratioP1;P1;durP2;ratioP2;P2;SDS_P1;SDS_P2;PMS_P1;PMS_P2;Temp;Humidity;BMP_temperature;BMP_pressure;BME280_temperature;BME280_humidity;BME280_pressure;Samples;Min_cycle;Max_cycle;Signal;HPM_P1;HPM_P2
2023/09/17 00:02:10;;;;;;;18.67;8.52;;;;;;;;;;4397794;32;318407;-85
2023/09/17 00:04:37;;;;;;;14.35;8.05;;;;;;;;;;4406805;32;318271;-85
2023/09/17 00:07:03;;;;;;;14.20;9.02;;;;;;;;;;4395016;32;318351;-87
2023/09/17 00:09:30;;;;;;;16.25;8.25;;;;;;;;;;4396599;32;318755;-84
2023/09/17 00:11:57;;;;;;;9.97;8.33;;;;;;;;;;4394900;32;320776;-84
2023/09/17 00:14:24;;;;;;;13.80;8.55;;;;;;;;;;4408070;32;317574;-84
2023/09/17 00:16:51;;;;;;;17.30;9.05;;;;;;;;;;4396326;32;318394;-84
2023/09/17 00:19:20;;;;;;;13.75;8.75;;;;;;;;;;4397621;32;317513;-84
2023/09/17 00:21:47;;;;;;;19.27;8.77;;;;;;;;;;4408906;32;318312;-84
2023/09/17 00:24:13;;;;;;;13.68;8.55;;;;;;;;;;4395222;32;318307;-85
2023/09/17 00:26:40;;;;;;;15.73;9.05;;;;;;;;;;4403077;32;342775;-86
2023/09/17 00:29:07;;;;;;;12.77;9.05;;;;;;;;;;4389597;32;318361;-84
2023/09/17 00:31:34;;;;;;;19.60;10.63;;;;;;;;;;4408408;32;317663;-84
2023/09/17 00:34:01;;;;;;;10.07;7.47;;;;;;;;;;4398798;32;319868;-84
2023/09/17 00:36:29;;;;;;;9.77;7.47;;;;;;;;;;4408170;32;318370;-85
2023/09/17 00:38:55;;;;;;;13.23;7.00;;;;;;;;;;4395981;32;317290;-84
2023/09/17 00:41:22;;;;;;;9.15;7.25;;;;;;;;;;4398407;32;318497;-84
2023/09/17 00:43:49;;;;;;;11.93;7.93;;;;;;;;;;4405498;32;316563;-83
2023/09/17 00:46:16;;;;;;;10.07;7.93;;;;;;;;;;4398465;32;318077;-88
2023/09/17 00:48:43;;;;;;;12.80;6.97;;;;;;;;;;4405982;32;318252;-87
2023/09/17 00:51:10;;;;;;;8.73;7.30;;;;;;;;;;4390576;32;318515;-87
2023/09/17 00:53:40;;;;;;;7.75;6.32;;;;;;;;;;4406535;32;316707;-87
2023/09/17 00:56:07;;;;;;;9.25;7.43;;;;;;;;;;4396445;32;317252;-87
2023/09/17 00:58:34;;;;;;;10.40;6.55;;;;;;;;;;4406776;32;317252;-87
2023/09/17 01:01:03;;;;;;;13.02;7.00;;;;;;;;;;4396170;32;318313;-87
2023/09/17 01:03:31;;;;;;;13.25;6.65;;;;;;;;;;4399881;32;340308;-87
2023/09/17 01:05:59;;;;;;;11.63;5.90;;;;;;;;;;4398000;32;318452;-87
2023/09/17 01:08:27;;;;;;;13.27;6.82;;;;;;;;;;4406673;32;318367;-87
2023/09/17 01:10:56;;;;;;;13.55;7.53;;;;;;;;;;4402233;32;318625;-87
2023/09/17 01:13:24;;;;;;;8.32;6.25;;;;;;;;;;4389553;32;354246;-87
2023/09/17 01:15:52;;;;;;;16.25;6.10;;;;;;;;;;4381827;32;371547;-87
2023/09/17 01:18:21;;;;;;;9.05;6.07;;;;;;;;;;4403605;32;319660;-87
2023/09/17 01:21:00;;;;;;;17.30;6.78;;;;;;;;;;4404887;32;316527;-87
2023/09/17 01:23:36;;;;;;;9.40;6.18;;;;;;;;;;4385588;32;418627;-87
2023/09/17 01:26:13;;;;;;;19.85;6.50;;;;;;;;;;4397622;32;344746;-87
2023/09/17 01:28:41;;;;;;;6.85;5.47;;;;;;;;;;4406544;32;318313;-87
2023/09/17 01:31:09;;;;;;;12.43;6.40;;;;;;;;;;4387879;32;318393;-87
2023/09/17 01:33:36;;;;;;;7.40;5.70;;;;;;;;;;4407897;32;317689;-88
2023/09/17 01:36:09;;;;;;;10.23;5.28;;;;;;;;;;4398324;32;317106;-88
2023/09/17 01:38:45;;;;;;;9.65;6.20;;;;;;;;;;4405926;32;318441;-88
2023/09/17 01:41:12;;;;;;;15.48;5.82;;;;;;;;;;4386450;32;317535;-87
2023/09/17 01:43:43;;;;;;;7.55;5.30;;;;;;;;;;4406055;32;317768;-87
2023/09/17 01:46:10;;;;;;;10.55;6.00;;;;;;;;;;4396504;32;339856;-87
2023/09/17 01:48:42;;;;;;;10.00;5.68;;;;;;;;;;4408093;32;318594;-88
2023/09/17 01:51:11;;;;;;;12.05;5.03;;;;;;;;;;4388370;32;318341;-87
2023/09/17 01:53:38;;;;;;;24.48;6.15;;;;;;;;;;4404135;32;318644;-87
2023/09/17 01:56:05;;;;;;;5.65;4.47;;;;;;;;;;4394399;32;318300;-87
2023/09/17 01:58:33;;;;;;;22.13;6.60;;;;;;;;;;4403315;32;316974;-87
2023/09/17 02:01:03;;;;;;;8.57;6.18;;;;;;;;;;4396014;32;318528;-86
2023/09/17 02:03:30;;;;;;;17.58;5.93;;;;;;;;;;4407334;32;317180;-85
2023/09/17 02:05:58;;;;;;;9.50;4.95;;;;;;;;;;4394069;32;349978;-84
2023/09/17 02:08:25;;;;;;;13.02;6.03;;;;;;;;;;4406483;32;316637;-87
2023/09/17 02:10:52;;;;;;;9.32;5.57;;;;;;;;;;4397134;32;318516;-87
2023/09/17 02:13:18;;;;;;;9.70;5.05;;;;;;;;;;4393369;32;317235;-87
2023/09/17 02:15:46;;;;;;;11.50;5.22;;;;;;;;;;4404667;32;317251;-87
2023/09/17 02:18:14;;;;;;;7.80;5.22;;;;;;;;;;4394629;32;317594;-87
2023/09/17 02:20:42;;;;;;;10.10;6.18;;;;;;;;;;4405442;32;316524;-87
2023/09/17 02:23:10;;;;;;;7.78;5.50;;;;;;;;;;4388641;32;339142;-87
2023/09/17 02:25:37;;;;;;;13.95;6.43;;;;;;;;;;4405335;32;316771;-87
2023/09/17 02:28:04;;;;;;;10.35;6.37;;;;;;;;;;4393957;32;317904;-87
2023/09/17 02:30:30;;;;;;;10.35;6.15;;;;;;;;;;4403059;32;318034;-87
2023/09/17 02:32:57;;;;;;;16.00;5.78;;;;;;;;;;4394011;32;318508;-87
2023/09/17 02:35:25;;;;;;;9.82;6.72;;;;;;;;;;4397530;32;318395;-87
2023/09/17 02:37:52;;;;;;;10.63;6.28;;;;;;;;;;4395040;32;317064;-88
2023/09/17 02:40:18;;;;;;;10.43;5.87;;;;;;;;;;4404752;32;318359;-84
2023/09/17 02:42:45;;;;;;;14.70;7.45;;;;;;;;;;4404666;32;347611;-84
2023/09/17 02:45:12;;;;;;;17.35;9.38;;;;;;;;;;4385811;32;318496;-83
2023/09/17 02:47:41;;;;;;;19.12;10.00;;;;;;;;;;4405907;32;317545;-86
2023/09/17 02:50:09;;;;;;;14.95;8.80;;;;;;;;;;4395073;32;319435;-84
2023/09/17 02:52:37;;;;;;;14.02;7.75;;;;;;;;;;4406309;32;317543;-84
2023/09/17 02:55:05;;;;;;;7.70;6.15;;;;;;;;;;4390498;32;318325;-86
2023/09/17 02:57:32;;;;;;;11.07;6.93;;;;;;;;;;4403364;32;317479;-85
2023/09/17 02:59:59;;;;;;;23.12;6.55;;;;;;;;;;4392662;32;318292;-83
2023/09/17 03:02:25;;;;;;;13.50;6.10;;;;;;;;;;4401452;32;318549;-83
2023/09/17 03:04:52;;;;;;;9.40;6.22;;;;;;;;;;4388565;32;357109;-84
2023/09/17 03:07:19;;;;;;;16.37;6.85;;;;;;;;;;4398994;32;316747;-89
2023/09/17 03:09:47;;;;;;;22.02;6.40;;;;;;;;;;4404225;32;318526;-89
2023/09/17 03:12:14;;;;;;;8.48;6.37;;;;;;;;;;4392019;32;318334;-87
2023/09/17 03:14:41;;;;;;;8.07;6.82;;;;;;;;;;4392820;32;317525;-87
2023/09/17 03:17:06;;;;;;;11.05;7.00;;;;;;;;;;4388091;32;317606;-87
2023/09/17 03:19:33;;;;;;;14.30;6.53;;;;;;;;;;4398878;32;318134;-87
2023/09/17 03:22:00;;;;;;;10.93;5.90;;;;;;;;;;4394342;32;318136;-87
2023/09/17 03:24:26;;;;;;;9.05;6.35;;;;;;;;;;4402890;32;317455;-88
2023/09/17 03:26:55;;;;;;;6.28;5.45;;;;;;;;;;4393142;32;363525;-87
2023/09/17 03:29:24;;;;;;;11.15;6.07;;;;;;;;;;4394043;32;324367;-87
2023/09/17 03:31:51;;;;;;;8.95;5.35;;;;;;;;;;4400965;32;317945;-87
2023/09/17 03:34:17;;;;;;;9.18;6.30;;;;;;;;;;4402453;32;316641;-87
2023/09/17 03:36:44;;;;;;;9.88;6.30;;;;;;;;;;4406185;32;317011;-87
2023/09/17 03:39:12;;;;;;;18.08;6.65;;;;;;;;;;4389693;32;317317;-87
2023/09/17 03:41:40;;;;;;;11.35;7.20;;;;;;;;;;4405027;32;318464;-87
2023/09/17 03:44:09;;;;;;;7.72;5.97;;;;;;;;;;4392159;32;317999;-86
2023/09/17 03:46:37;;;;;;;14.90;6.82;;;;;;;;;;4404122;32;317389;-87
2023/09/17 03:49:04;;;;;;;10.45;5.45;;;;;;;;;;4390136;32;355753;-87
2023/09/17 03:51:31;;;;;;;10.57;6.65;;;;;;;;;;4399770;32;318464;-82
2023/09/17 03:53:58;;;;;;;11.68;6.05;;;;;;;;;;4396457;32;317994;-87
2023/09/17 03:56:25;;;;;;;14.32;7.70;;;;;;;;;;4403166;32;318508;-88
2023/09/17 03:58:53;;;;;;;11.90;9.68;;;;;;;;;;4393520;32;318718;-87
2023/09/17 04:01:21;;;;;;;13.98;8.68;;;;;;;;;;4396435;32;340794;-87
2023/09/17 04:03:48;;;;;;;14.57;8.65;;;;;;;;;;4402809;32;317693;-87
2023/09/17 04:06:15;;;;;;;12.57;7.93;;;;;;;;;;4392837;32;317833;-87
2023/09/17 04:08:41;;;;;;;11.70;7.43;;;;;;;;;;4403290;32;318213;-87
2023/09/17 04:11:08;;;;;;;12.73;6.85;;;;;;;;;;4385701;32;318624;-87
2023/09/17 04:13:35;;;;;;;13.43;7.00;;;;;;;;;;4403051;32;317762;-88
2023/09/17 04:16:02;;;;;;;16.15;6.85;;;;;;;;;;4395399;32;318431;-87
2023/09/17 04:18:30;;;;;;;22.52;6.97;;;;;;;;;;4405676;32;328438;-88
2023/09/17 04:20:56;;;;;;;15.27;6.43;;;;;;;;;;4392517;32;338687;-87
2023/09/17 04:23:24;;;;;;;10.00;6.43;;;;;;;;;;4397731;32;317744;-87
2023/09/17 04:25:52;;;;;;;11.12;6.45;;;;;;;;;;4393380;32;318180;-87
2023/09/17 04:28:19;;;;;;;13.93;6.18;;;;;;;;;;4388275;32;318377;-87
2023/09/17 04:30:46;;;;;;;11.88;6.40;;;;;;;;;;4401342;32;318299;-87
2023/09/17 04:33:12;;;;;;;17.23;7.00;;;;;;;;;;4389218;32;318086;-89
2023/09/17 04:35:40;;;;;;;20.88;6.00;;;;;;;;;;4406467;32;318263;-85
2023/09/17 04:38:07;;;;;;;6.03;5.37;;;;;;;;;;4396299;32;318219;-88
2023/09/17 04:40:34;;;;;;;8.75;5.78;;;;;;;;;;4407668;32;317299;-86
2023/09/17 04:43:03;;;;;;;15.15;6.32;;;;;;;;;;4395266;32;316785;-87
2023/09/17 04:45:35;;;;;;;12.10;7.25;;;;;;;;;;4408899;32;318060;-86
2023/09/17 04:48:02;;;;;;;8.15;5.22;;;;;;;;;;4396867;32;318757;-84
2023/09/17 04:50:29;;;;;;;10.18;6.62;;;;;;;;;;4405072;32;317299;-83
2023/09/17 04:52:57;;;;;;;13.38;7.07;;;;;;;;;;4396865;32;317732;-87
2023/09/17 04:55:24;;;;;;;10.98;6.90;;;;;;;;;;4398378;32;318623;-87
2023/09/17 04:57:52;;;;;;;15.75;7.78;;;;;;;;;;4395675;32;318191;-83
2023/09/17 05:00:20;;;;;;;16.12;9.25;;;;;;;;;;4406606;32;324136;-84
2023/09/17 05:02:48;;;;;;;14.60;8.48;;;;;;;;;;4407524;32;318009;-84
2023/09/17 05:05:17;;;;;;;15.52;8.13;;;;;;;;;;4388315;32;318074;-87
2023/09/17 05:07:44;;;;;;;13.90;7.53;;;;;;;;;;4405519;32;317474;-88
2023/09/17 05:10:12;;;;;;;11.43;6.93;;;;;;;;;;4394713;32;328617;-87
2023/09/17 05:12:39;;;;;;;9.20;6.87;;;;;;;;;;4404386;32;317637;-88
2023/09/17 05:15:06;;;;;;;17.50;9.07;;;;;;;;;;4384155;32;317605;-87
2023/09/17 05:17:33;;;;;;;15.55;8.68;;;;;;;;;;4407545;32;318379;-88
2023/09/17 05:20:00;;;;;;;14.25;8.55;;;;;;;;;;4395453;32;342972;-88
2023/09/17 05:22:26;;;;;;;12.52;9.65;;;;;;;;;;4405255;32;318166;-85
2023/09/17 05:24:53;;;;;;;14.27;8.77;;;;;;;;;;4397994;32;318137;-84
2023/09/17 05:27:21;;;;;;;14.63;8.85;;;;;;;;;;4401757;32;318794;-84
2023/09/17 05:29:48;;;;;;;10.10;7.55;;;;;;;;;;4408821;32;318503;-84
2023/09/17 05:32:15;;;;;;;12.55;8.02;;;;;;;;;;4395270;32;317612;-84
2023/09/17 05:34:44;;;;;;;11.45;8.45;;;;;;;;;;4408274;32;318279;-84
2023/09/17 05:37:11;;;;;;;11.65;7.72;;;;;;;;;;4388695;32;318313;-84
2023/09/17 05:39:37;;;;;;;11.75;7.47;;;;;;;;;;4404548;32;318214;-87
2023/09/17 05:42:05;;;;;;;20.15;7.70;;;;;;;;;;4394386;32;318407;-85
2023/09/17 05:44:33;;;;;;;18.12;7.68;;;;;;;;;;4405937;32;318338;-86
2023/09/17 05:46:59;;;;;;;14.75;7.47;;;;;;;;;;4394708;32;344733;-88
2023/09/17 05:49:26;;;;;;;12.32;6.68;;;;;;;;;;4399149;32;318062;-87
2023/09/17 05:51:53;;;;;;;14.75;6.95;;;;;;;;;;4397662;32;318640;-87
2023/09/17 05:54:21;;;;;;;15.85;6.32;;;;;;;;;;4406257;32;318225;-87
2023/09/17 05:56:48;;;;;;;9.70;6.72;;;;;;;;;;4403923;32;317566;-87
2023/09/17 05:59:15;;;;;;;11.27;5.90;;;;;;;;;;4385758;32;317371;-87
2023/09/17 06:01:43;;;;;;;10.65;7.70;;;;;;;;;;4405573;32;318410;-86
2023/09/17 06:04:09;;;;;;;17.10;7.25;;;;;;;;;;4397560;32;318156;-87
2023/09/17 06:06:36;;;;;;;14.52;6.75;;;;;;;;;;4407639;32;317484;-88
2023/09/17 06:09:03;;;;;;;9.73;6.25;;;;;;;;;;4391530;32;318534;-87
2023/09/17 06:11:31;;;;;;;12.85;7.68;;;;;;;;;;4404206;32;317276;-89
2023/09/17 06:13:57;;;;;;;18.12;7.55;;;;;;;;;;4394344;32;318168;-88
2023/09/17 06:16:24;;;;;;;11.93;7.37;;;;;;;;;;4407219;32;318079;-87
2023/09/17 06:18:54;;;;;;;10.52;7.12;;;;;;;;;;4399578;32;318598;-88
2023/09/17 06:21:21;;;;;;;13.52;7.50;;;;;;;;;;4398714;32;317508;-85
2023/09/17 06:23:48;;;;;;;9.50;7.30;;;;;;;;;;4403474;32;317755;-85
2023/09/17 06:26:14;;;;;;;12.88;7.82;;;;;;;;;;4396235;32;317116;-91
2023/09/17 06:28:41;;;;;;;15.68;7.93;;;;;;;;;;4406915;32;318249;-83
2023/09/17 06:31:08;;;;;;;15.13;7.37;;;;;;;;;;4389380;32;318019;-89
2023/09/17 06:33:35;;;;;;;11.07;7.68;;;;;;;;;;4405450;32;317527;-88
2023/09/17 06:36:04;;;;;;;10.75;7.68;;;;;;;;;;4396261;32;317928;-86
2023/09/17 06:38:31;;;;;;;16.62;9.38;;;;;;;;;;4406650;32;317618;-91
2023/09/17 06:40:58;;;;;;;15.27;8.52;;;;;;;;;;4396402;32;318402;-91
2023/09/17 06:43:24;;;;;;;14.25;8.90;;;;;;;;;;4399983;32;317643;-89
2023/09/17 06:45:52;;;;;;;10.20;7.85;;;;;;;;;;4396526;32;317606;-89
2023/09/17 06:48:18;;;;;;;13.57;8.40;;;;;;;;;;4405185;32;317465;-90
2023/09/17 06:50:45;;;;;;;13.40;8.35;;;;;;;;;;4406972;32;318318;-89
2023/09/17 06:53:13;;;;;;;13.32;9.00;;;;;;;;;;4389221;32;318214;-90
2023/09/17 06:55:41;;;;;;;10.68;8.65;;;;;;;;;;4406828;32;318154;-90
2023/09/17 06:58:08;;;;;;;19.60;9.52;;;;;;;;;;4396574;32;317981;-91
2023/09/17 07:00:35;;;;;;;22.15;10.52;;;;;;;;;;4403405;32;317634;-91
2023/09/17 07:03:02;;;;;;;19.77;9.82;;;;;;;;;;4393350;32;319565;-89
2023/09/17 07:05:29;;;;;;;13.62;9.35;;;;;;;;;;4400045;32;317241;-88
2023/09/17 07:07:55;;;;;;;13.30;9.93;;;;;;;;;;4396388;32;318475;-85
2023/09/17 07:10:23;;;;;;;10.88;8.50;;;;;;;;;;4404936;32;318209;-88
2023/09/17 07:12:51;;;;;;;12.37;9.55;;;;;;;;;;4400773;32;317448;-86
2023/09/17 07:15:18;;;;;;;19.15;9.70;;;;;;;;;;4371388;32;416933;-85
2023/09/17 07:17:45;;;;;;;17.77;10.90;;;;;;;;;;4393458;32;317421;-86
2023/09/17 07:20:13;;;;;;;17.17;12.70;;;;;;;;;;4392193;32;319254;-87
2023/09/17 07:22:40;;;;;;;18.87;10.80;;;;;;;;;;4398997;32;319401;-85
2023/09/17 07:25:07;;;;;;;14.30;10.20;;;;;;;;;;4385687;32;318909;-87
2023/09/17 07:27:35;;;;;;;20.17;11.45;;;;;;;;;;4403084;32;319068;-88
2023/09/17 07:30:02;;;;;;;15.57;11.93;;;;;;;;;;4393577;32;319243;-90
2023/09/17 07:32:29;;;;;;;16.70;12.90;;;;;;;;;;4403453;32;319152;-86
2023/09/17 07:34:56;;;;;;;10.27;9.10;;;;;;;;;;4395374;32;319476;-88
2023/09/17 07:37:23;;;;;;;16.95;11.80;;;;;;;;;;4397523;32;317990;-89
2023/09/17 07:39:56;;;;;;;20.83;12.52;;;;;;;;;;4405081;32;318974;-89
2023/09/17 07:42:23;;;;;;;17.00;11.15;;;;;;;;;;4391146;32;419860;-87
2023/09/17 07:44:51;;;;;;;21.70;13.75;;;;;;;;;;4404957;32;318556;-89
2023/09/17 07:47:18;;;;;;;23.62;13.55;;;;;;;;;;4385341;32;418843;-88
2023/09/17 07:49:45;;;;;;;17.17;13.00;;;;;;;;;;4406930;32;318489;-91
2023/09/17 07:52:12;;;;;;;22.50;17.87;;;;;;;;;;4393636;32;319488;-84
2023/09/17 07:54:41;;;;;;;25.90;17.45;;;;;;;;;;4407185;32;319363;-86
2023/09/17 07:57:09;;;;;;;25.70;16.67;;;;;;;;;;4387979;32;319525;-90
2023/09/17 07:59:35;;;;;;;22.98;17.55;;;;;;;;;;4404956;32;319519;-90
2023/09/17 08:02:04;;;;;;;22.75;17.00;;;;;;;;;;4395726;32;319138;-92
2023/09/17 08:04:31;;;;;;;25.85;17.85;;;;;;;;;;4400638;32;358525;-88
2023/09/17 08:06:58;;;;;;;20.20;16.48;;;;;;;;;;4394732;32;319049;-89
2023/09/17 08:09:24;;;;;;;20.50;16.37;;;;;;;;;;4397299;32;318623;-86
2023/09/17 08:11:51;;;;;;;35.13;19.12;;;;;;;;;;4397335;32;319582;-87
2023/09/17 08:14:22;;;;;;;26.80;16.55;;;;;;;;;;4408282;32;319191;-89
2023/09/17 08:16:49;;;;;;;23.40;18.12;;;;;;;;;;4409599;32;319061;-86
2023/09/17 08:19:17;;;;;;;25.37;20.05;;;;;;;;;;4387818;32;319222;-86
2023/09/17 08:21:44;;;;;;;23.60;19.62;;;;;;;;;;4410154;32;319255;-89
2023/09/17 08:24:11;;;;;;;21.95;19.37;;;;;;;;;;4400067;32;319113;-88
2023/09/17 08:26:37;;;;;;;28.27;20.95;;;;;;;;;;4409678;32;319313;-88
2023/09/17 08:29:05;;;;;;;29.45;21.17;;;;;;;;;;4394765;32;319237;-86
2023/09/17 08:31:32;;;;;;;29.15;21.17;;;;;;;;;;4408492;32;319168;-89
2023/09/17 08:34:00;;;;;;;28.30;21.50;;;;;;;;;;4396445;32;319413;-89
2023/09/17 08:36:28;;;;;;;26.23;20.85;;;;;;;;;;4407955;32;319093;-89
2023/09/17 08:38:55;;;;;;;32.47;22.27;;;;;;;;;;4395830;32;319338;-89
2023/09/17 08:41:26;;;;;;;33.60;22.20;;;;;;;;;;4396146;32;319193;-89
2023/09/17 08:43:54;;;;;;;27.37;21.75;;;;;;;;;;4396487;32;350037;-88
2023/09/17 08:46:22;;;;;;;25.10;21.77;;;;;;;;;;4407316;32;319405;-87
2023/09/17 08:48:49;;;;;;;25.45;21.87;;;;;;;;;;4408625;32;325938;-89
2023/09/17 08:51:19;;;;;;;27.85;21.62;;;;;;;;;;4388071;32;417914;-85
2023/09/17 08:53:54;;;;;;;33.92;22.42;;;;;;;;;;4387311;32;318463;-85
2023/09/17 08:56:22;;;;;;;31.40;23.30;;;;;;;;;;4368913;32;418305;-87
2023/09/17 08:58:52;;;;;;;28.35;23.12;;;;;;;;;;4389080;32;319183;-89
2023/09/17 09:01:21;;;;;;;23.95;21.48;;;;;;;;;;4369080;32;420618;-88
2023/09/17 09:03:49;;;;;;;26.20;22.75;;;;;;;;;;4392009;32;319754;-89
2023/09/17 09:06:17;;;;;;;24.25;20.17;;;;;;;;;;4380415;32;420248;-89
2023/09/17 09:08:48;;;;;;;29.98;21.92;;;;;;;;;;4408073;32;318647;-89
2023/09/17 09:11:15;;;;;;;32.92;22.85;;;;;;;;;;4377825;32;355300;-89
2023/09/17 09:13:42;;;;;;;26.73;21.85;;;;;;;;;;4395772;32;319211;-86
2023/09/17 09:16:10;;;;;;;30.90;21.55;;;;;;;;;;4378297;32;318937;-87
2023/09/17 09:18:37;;;;;;;28.42;21.58;;;;;;;;;;4390967;32;319169;-87
2023/09/17 09:21:04;;;;;;;27.40;22.42;;;;;;;;;;4374769;32;319775;-88
2023/09/17 09:23:30;;;;;;;26.23;22.50;;;;;;;;;;4391023;32;319433;-89
2023/09/17 09:25:58;;;;;;;28.17;22.40;;;;;;;;;;4376874;32;319224;-87
2023/09/17 09:28:25;;;;;;;29.35;23.27;;;;;;;;;;4371059;32;319195;-89
2023/09/17 09:30:53;;;;;;;28.42;22.50;;;;;;;;;;4385451;32;319612;-89
2023/09/17 09:33:21;;;;;;;30.25;21.52;;;;;;;;;;4395559;32;336864;-87
2023/09/17 09:35:49;;;;;;;23.17;20.70;;;;;;;;;;4402775;32;318886;-88
2023/09/17 09:38:18;;;;;;;33.90;22.52;;;;;;;;;;4393703;32;381142;-88
2023/09/17 09:40:45;;;;;;;29.10;22.55;;;;;;;;;;4407839;32;319620;-83
2023/09/17 09:43:29;;;;;;;24.08;20.37;;;;;;;;;;4389642;32;359438;-89
2023/09/17 09:45:55;;;;;;;28.55;22.10;;;;;;;;;;4397845;32;319652;-88
2023/09/17 09:48:22;;;;;;;28.90;23.48;;;;;;;;;;4404296;32;319691;-90
2023/09/17 09:50:49;;;;;;;32.63;20.95;;;;;;;;;;4405976;32;346235;-88
2023/09/17 09:53:15;;;;;;;25.23;21.15;;;;;;;;;;4389662;32;319511;-88
2023/09/17 09:55:42;;;;;;;26.37;21.73;;;;;;;;;;4402151;32;319311;-89
2023/09/17 09:58:10;;;;;;;26.83;22.87;;;;;;;;;;4393350;32;319543;-89
2023/09/17 10:00:44;;;;;;;31.55;23.48;;;;;;;;;;4402599;32;319789;-89
2023/09/17 10:03:11;;;;;;;29.08;22.00;;;;;;;;;;4387246;32;319433;-88
2023/09/17 10:05:39;;;;;;;32.83;21.15;;;;;;;;;;4403132;32;319291;-87
2023/09/17 10:08:08;;;;;;;28.67;22.13;;;;;;;;;;4391054;32;319823;-88
2023/09/17 10:10:37;;;;;;;25.85;23.17;;;;;;;;;;4401378;32;319010;-88
2023/09/17 10:13:06;;;;;;;27.80;22.87;;;;;;;;;;4386714;32;318930;-87
2023/09/17 10:15:33;;;;;;;26.42;21.02;;;;;;;;;;4390459;32;318824;-87
2023/09/17 10:18:03;;;;;;;29.63;21.50;;;;;;;;;;4395472;32;319544;-88
2023/09/17 10:20:31;;;;;;;21.85;19.58;;;;;;;;;;4404735;32;319979;-89
2023/09/17 10:22:59;;;;;;;37.50;22.42;;;;;;;;;;4393476;32;319190;-88
2023/09/17 10:25:27;;;;;;;21.83;19.55;;;;;;;;;;4399577;32;319243;-88
2023/09/17 10:27:54;;;;;;;23.70;19.58;;;;;;;;;;4395115;32;319405;-87
2023/09/17 10:30:22;;;;;;;23.08;20.62;;;;;;;;;;4396046;32;318824;-88
2023/09/17 10:32:51;;;;;;;26.77;21.85;;;;;;;;;;4405218;32;319103;-87
2023/09/17 10:35:20;;;;;;;23.67;21.25;;;;;;;;;;4384144;32;418930;-88
2023/09/17 10:37:48;;;;;;;26.37;22.17;;;;;;;;;;4407284;32;318913;-89
2023/09/17 10:40:18;;;;;;;26.12;19.83;;;;;;;;;;4395027;32;320127;-88
2023/09/17 10:42:45;;;;;;;24.02;19.67;;;;;;;;;;4401053;32;318581;-89
2023/09/17 10:45:13;;;;;;;25.40;21.48;;;;;;;;;;4388927;32;318824;-88
2023/09/17 10:47:41;;;;;;;29.23;20.55;;;;;;;;;;4404387;32;319845;-89
2023/09/17 10:50:09;;;;;;;28.83;22.10;;;;;;;;;;4380204;32;319057;-89
2023/09/17 10:52:37;;;;;;;25.60;19.30;;;;;;;;;;4402519;32;319619;-88
2023/09/17 10:55:07;;;;;;;22.85;18.77;;;;;;;;;;4391256;32;319631;-88
2023/09/17 10:57:38;;;;;;;23.00;20.05;;;;;;;;;;4402402;32;319838;-87
2023/09/17 11:00:13;;;;;;;27.70;18.83;;;;;;;;;;4394386;32;319511;-86
2023/09/17 11:02:45;;;;;;;28.45;17.90;;;;;;;;;;4402477;32;318673;-87
2023/09/17 11:05:14;;;;;;;25.73;20.08;;;;;;;;;;4387328;32;319357;-88
2023/09/17 11:07:43;;;;;;;25.73;20.05;;;;;;;;;;4403566;32;319669;-87
2023/09/17 11:10:12;;;;;;;23.75;18.70;;;;;;;;;;4392735;32;319422;-88
2023/09/17 11:12:39;;;;;;;19.95;16.42;;;;;;;;;;4400732;32;319570;-88
2023/09/17 11:15:07;;;;;;;21.98;16.73;;;;;;;;;;4374866;32;319396;-88
2023/09/17 11:17:35;;;;;;;29.02;17.77;;;;;;;;;;4390679;32;351387;-88
2023/09/17 11:20:12;;;;;;;28.58;17.77;;;;;;;;;;4381217;32;319384;-88
2023/09/17 11:22:40;;;;;;;19.05;16.60;;;;;;;;;;4393364;32;318819;-89
2023/09/17 11:25:11;;;;;;;21.02;16.30;;;;;;;;;;4371931;32;319212;-88
2023/09/17 11:27:50;;;;;;;21.77;15.05;;;;;;;;;;4401552;32;319249;-87
2023/09/17 11:30:18;;;;;;;18.48;13.93;;;;;;;;;;4392910;32;418902;-87
2023/09/17 11:32:53;;;;;;;27.25;13.85;;;;;;;;;;4384731;32;331398;-87
2023/09/17 11:35:22;;;;;;;20.05;14.18;;;;;;;;;;4385031;32;418295;-88
2023/09/17 11:37:49;;;;;;;19.83;14.90;;;;;;;;;;4412565;32;318237;-88
2023/09/17 11:40:18;;;;;;;19.55;12.57;;;;;;;;;;4400025;32;319481;-88
2023/09/17 11:42:46;;;;;;;21.12;13.05;;;;;;;;;;4403030;32;319255;-87
2023/09/17 11:45:14;;;;;;;15.15;12.15;;;;;;;;;;4389848;32;318742;-87
2023/09/17 11:47:41;;;;;;;13.10;11.63;;;;;;;;;;4405588;32;319303;-87
2023/09/17 11:50:09;;;;;;;16.45;12.32;;;;;;;;;;4398606;32;319498;-86
2023/09/17 11:52:36;;;;;;;19.58;11.85;;;;;;;;;;4410220;32;319308;-88
2023/09/17 11:55:07;;;;;;;15.80;10.50;;;;;;;;;;4396334;32;319457;-91
2023/09/17 11:57:35;;;;;;;14.52;10.57;;;;;;;;;;4401755;32;318720;-86
2023/09/17 12:00:09;;;;;;;16.67;9.90;;;;;;;;;;4398904;32;319289;-87
2023/09/17 12:02:37;;;;;;;17.73;11.75;;;;;;;;;;4409710;32;318976;-87
2023/09/17 12:05:05;;;;;;;16.87;11.00;;;;;;;;;;4367748;32;319702;-86
2023/09/17 12:07:33;;;;;;;17.15;10.18;;;;;;;;;;4407760;32;319432;-85
2023/09/17 12:10:04;;;;;;;13.62;10.48;;;;;;;;;;4396659;32;319225;-86
2023/09/17 12:12:36;;;;;;;10.82;8.48;;;;;;;;;;4404507;32;319433;-85
2023/09/17 12:15:05;;;;;;;13.88;9.20;;;;;;;;;;4389659;32;318579;-88
2023/09/17 12:17:33;;;;;;;11.70;7.95;;;;;;;;;;4405300;32;317761;-85
2023/09/17 12:20:51;;;;;;;18.83;8.43;;;;;;;;;;4394357;32;318536;-85
2023/09/17 12:23:26;;;;;;;20.85;8.93;;;;;;;;;;4383604;32;418935;-86
2023/09/17 12:25:53;;;;;;;12.50;8.15;;;;;;;;;;4394006;32;318112;-85
2023/09/17 12:28:28;;;;;;;14.55;8.75;;;;;;;;;;4404922;32;317723;-84
2023/09/17 12:30:56;;;;;;;17.08;9.77;;;;;;;;;;4391172;32;318322;-84
2023/09/17 12:33:23;;;;;;;13.55;9.65;;;;;;;;;;4393278;32;317742;-87
2023/09/17 12:35:50;;;;;;;14.82;10.13;;;;;;;;;;4407057;32;318163;-86
2023/09/17 12:38:16;;;;;;;16.45;10.57;;;;;;;;;;4394116;32;418643;-85
2023/09/17 12:40:43;;;;;;;23.70;10.27;;;;;;;;;;4407553;32;344713;-85
2023/09/17 12:43:10;;;;;;;17.77;10.70;;;;;;;;;;4390564;32;318630;-86
2023/09/17 12:45:40;;;;;;;15.55;10.00;;;;;;;;;;4407865;32;319326;-86
2023/09/17 12:48:07;;;;;;;15.85;10.05;;;;;;;;;;4395665;32;319916;-88
2023/09/17 12:50:34;;;;;;;12.48;9.38;;;;;;;;;;4404949;32;319168;-85
2023/09/17 12:53:01;;;;;;;17.23;10.68;;;;;;;;;;4396436;32;317907;-86
2023/09/17 12:55:28;;;;;;;18.87;10.68;;;;;;;;;;4395154;32;318671;-89
2023/09/17 12:57:55;;;;;;;21.77;12.60;;;;;;;;;;4396733;32;319190;-84
2023/09/17 13:00:22;;;;;;;20.85;12.18;;;;;;;;;;4405714;32;319512;-85
2023/09/17 13:02:53;;;;;;;28.23;11.98;;;;;;;;;;4406017;32;319537;-84
2023/09/17 13:05:21;;;;;;;18.25;11.18;;;;;;;;;;4384911;32;419947;-85
2023/09/17 13:07:48;;;;;;;15.90;11.52;;;;;;;;;;4406675;32;319372;-90
2023/09/17 13:10:19;;;;;;;14.70;11.95;;;;;;;;;;4395140;32;319598;-88
2023/09/17 13:12:45;;;;;;;14.38;12.32;;;;;;;;;;4401571;32;318842;-83
2023/09/17 13:15:13;;;;;;;15.32;10.75;;;;;;;;;;4391521;32;319158;-89
2023/09/17 13:17:39;;;;;;;18.98;12.45;;;;;;;;;;4403919;32;318679;-84
2023/09/17 13:20:09;;;;;;;18.10;11.68;;;;;;;;;;4395300;32;318948;-85
2023/09/17 13:22:36;;;;;;;16.42;12.73;;;;;;;;;;4405027;32;318912;-84
2023/09/17 13:25:04;;;;;;;20.17;11.50;;;;;;;;;;4388284;32;319298;-86
2023/09/17 13:27:31;;;;;;;10.68;8.82;;;;;;;;;;4407243;32;318904;-83
2023/09/17 13:29:58;;;;;;;18.17;8.45;;;;;;;;;;4397256;32;318900;-83
2023/09/17 13:32:26;;;;;;;10.38;8.15;;;;;;;;;;4406257;32;317805;-82
2023/09/17 13:34:53;;;;;;;14.90;8.02;;;;;;;;;;4395372;32;317603;-83
2023/09/17 13:37:21;;;;;;;13.38;8.55;;;;;;;;;;4396875;32;318712;-86
2023/09/17 13:39:49;;;;;;;9.52;7.00;;;;;;;;;;4403717;32;318746;-85
2023/09/17 13:42:16;;;;;;;10.00;6.55;;;;;;;;;;4398130;32;317332;-85
2023/09/17 13:44:42;;;;;;;9.50;6.68;;;;;;;;;;4405238;32;318126;-87
2023/09/17 13:47:11;;;;;;;15.13;7.47;;;;;;;;;;4390858;32;317663;-86
2023/09/17 13:49:38;;;;;;;9.48;6.93;;;;;;;;;;4403000;32;318099;-90
2023/09/17 13:52:06;;;;;;;13.93;7.00;;;;;;;;;;4392685;32;317230;-88
2023/09/17 13:54:37;;;;;;;9.15;6.43;;;;;;;;;;4404466;32;317531;-86
2023/09/17 13:57:04;;;;;;;8.48;6.40;;;;;;;;;;4390112;32;316827;-88
2023/09/17 13:59:31;;;;;;;11.23;6.35;;;;;;;;;;4407034;32;316911;-85
2023/09/17 14:01:57;;;;;;;10.35;5.72;;;;;;;;;;4395225;32;318577;-86
2023/09/17 14:04:24;;;;;;;6.22;5.47;;;;;;;;;;4403754;32;333943;-85
2023/09/17 14:06:51;;;;;;;6.43;5.03;;;;;;;;;;4404074;32;317569;-91
2023/09/17 14:09:18;;;;;;;13.80;5.15;;;;;;;;;;4385492;32;387161;-89
2023/09/17 14:11:46;;;;;;;8.13;4.80;;;;;;;;;;4410106;32;317808;-94
2023/09/17 14:14:13;;;;;;;6.05;5.10;;;;;;;;;;4396580;32;343290;-89
2023/09/17 14:16:41;;;;;;;12.43;5.35;;;;;;;;;;4406524;32;317014;-82
2023/09/17 14:19:07;;;;;;;12.93;5.75;;;;;;;;;;4383491;32;318318;-88